createdAt,value
2017-04-26T00:00:10.176Z,7.70
2017-04-26T00:01:10.205Z,7.70
2017-04-26T00:02:10.329Z,7.70
2017-04-26T00:03:11.059Z,7.60
2017-04-26T00:04:12.078Z,7.60
2017-04-26T00:05:12.106Z,7.60
2017-04-26T00:06:12.835Z,7.60
2017-04-26T00:07:12.827Z,7.60
2017-04-26T00:08:13.551Z,7.60
2017-04-26T00:09:14.649Z,7.60
2017-04-26T00:10:14.643Z,7.60
2017-04-26T00:11:14.582Z,7.60
2017-04-26T00:12:14.499Z,7.60
2017-04-26T00:13:14.507Z,7.60
2017-04-26T00:14:14.787Z,7.50
2017-04-26T00:15:14.836Z,7.60
2017-04-26T00:16:14.837Z,7.50
2017-04-26T00:17:14.820Z,7.50
2017-04-26T00:18:14.761Z,7.50
2017-04-26T00:19:15.130Z,7.50
2017-04-26T00:20:15.092Z,7.60
2017-04-26T00:21:15.025Z,7.50
2017-04-26T00:22:15.079Z,7.50
2017-04-26T00:23:22.980Z,7.50
2017-04-26T00:24:23.541Z,7.50
2017-04-26T00:25:23.472Z,7.50
2017-04-26T00:26:24.264Z,7.50
2017-04-26T00:27:24.252Z,7.50
2017-04-26T00:28:24.201Z,7.50
2017-04-26T00:29:24.511Z,7.50
2017-04-26T00:30:24.485Z,7.50
2017-04-26T00:31:24.414Z,7.50
2017-04-26T00:32:24.424Z,7.50
2017-04-26T00:33:24.357Z,7.50
2017-04-26T00:34:24.732Z,7.50
2017-04-26T00:35:24.695Z,7.50
2017-04-26T00:36:24.675Z,7.50
2017-04-26T00:37:25.405Z,7.50
2017-04-26T00:38:25.363Z,7.50
2017-04-26T00:39:25.721Z,7.60
2017-04-26T00:40:26.422Z,7.50
2017-04-26T00:41:26.411Z,7.50
2017-04-26T00:42:26.343Z,7.50
2017-04-26T00:43:27.044Z,7.50
2017-04-26T00:44:27.307Z,7.60
2017-04-26T00:45:27.260Z,7.60
2017-04-26T00:46:27.249Z,7.60
2017-04-26T00:47:27.278Z,7.60
2017-04-26T00:48:27.242Z,7.60
2017-04-26T00:49:27.597Z,7.60
2017-04-26T00:50:27.639Z,7.60
2017-04-26T00:51:28.375Z,7.50
2017-04-26T00:52:28.326Z,7.60
2017-04-26T00:53:28.243Z,7.60
2017-04-26T00:54:28.539Z,7.60
2017-04-26T00:55:28.446Z,7.50
2017-04-26T00:56:28.402Z,7.50
2017-04-26T00:57:28.345Z,7.50
2017-04-26T00:58:28.267Z,7.50
2017-04-26T00:59:28.235Z,7.50
2017-04-26T01:00:28.786Z,7.50
2017-04-26T01:01:28.760Z,7.50
2017-04-26T01:02:29.489Z,7.50
2017-04-26T01:03:29.471Z,7.50
2017-04-26T01:04:29.471Z,7.50
2017-04-26T01:05:29.807Z,7.50
2017-04-26T01:06:29.773Z,7.50
2017-04-26T01:07:30.478Z,7.50
2017-04-26T01:08:30.447Z,7.50
2017-04-26T01:09:30.128Z,7.50
2017-04-26T01:10:30.489Z,7.50
2017-04-26T01:11:30.427Z,7.50
2017-04-26T01:12:30.406Z,7.50
2017-04-26T01:13:30.399Z,7.50
2017-04-26T01:14:30.398Z,7.50
2017-04-26T01:15:30.625Z,7.50
2017-04-26T01:16:30.634Z,7.50
2017-04-26T01:17:30.558Z,7.50
2017-04-26T01:18:31.721Z,7.50
2017-04-26T01:19:31.661Z,7.50
2017-04-26T01:20:31.981Z,7.50
2017-04-26T01:21:31.970Z,7.50
2017-04-26T01:22:31.920Z,7.50
2017-04-26T01:23:32.727Z,7.50
2017-04-26T01:24:32.676Z,7.50
2017-04-26T01:25:32.768Z,7.40
2017-04-26T01:26:32.799Z,7.40
2017-04-26T01:27:32.841Z,7.40
2017-04-26T01:28:32.825Z,7.40
2017-04-26T01:29:32.743Z,7.40
2017-04-26T01:30:33.075Z,7.40
2017-04-26T01:31:33.005Z,7.40
2017-04-26T01:32:33.024Z,7.40
2017-04-26T01:33:33.050Z,7.40
2017-04-26T01:34:33.005Z,7.40
2017-04-26T01:35:33.314Z,7.40
2017-04-26T01:36:33.370Z,7.40
2017-04-26T01:37:33.340Z,7.40
2017-04-26T01:38:34.036Z,7.40
2017-04-26T01:39:34.015Z,7.40
2017-04-26T01:40:34.208Z,7.40
2017-04-26T01:41:34.151Z,7.40
2017-04-26T01:42:34.505Z,7.40
2017-04-26T01:43:35.223Z,7.30
2017-04-26T01:44:35.929Z,7.30
2017-04-26T01:45:36.223Z,7.40
2017-04-26T01:46:36.183Z,7.30
2017-04-26T01:47:36.154Z,7.30
2017-04-26T01:48:36.891Z,7.30
2017-04-26T01:49:36.865Z,7.30
2017-04-26T01:50:37.186Z,7.30
2017-04-26T01:51:36.919Z,7.30
2017-04-26T01:52:36.697Z,7.30
2017-04-26T01:53:36.702Z,7.30
2017-04-26T01:54:37.438Z,7.30
2017-04-26T01:55:38.441Z,7.30
2017-04-26T01:56:38.275Z,7.30
2017-04-26T01:57:38.274Z,7.30
2017-04-26T01:58:39.119Z,7.20
2017-04-26T01:59:39.137Z,7.30
2017-04-26T02:00:39.502Z,7.30
2017-04-26T02:01:39.785Z,7.30
2017-04-26T02:02:39.858Z,7.30
2017-04-26T02:03:39.839Z,7.30
2017-04-26T02:04:40.665Z,7.20
2017-04-26T02:05:41.672Z,7.20
2017-04-26T02:06:41.666Z,7.30
2017-04-26T02:07:41.596Z,7.30
2017-04-26T02:08:41.540Z,7.20
2017-04-26T02:09:41.622Z,7.20
2017-04-26T02:10:42.723Z,7.20
2017-04-26T02:11:42.638Z,7.20
2017-04-26T02:12:42.599Z,7.30
2017-04-26T02:13:42.309Z,7.20
2017-04-26T02:14:42.328Z,7.20
2017-04-26T02:15:42.748Z,7.30
2017-04-26T02:16:42.738Z,7.30
2017-04-26T02:17:42.685Z,7.30
2017-04-26T02:18:43.410Z,7.30
2017-04-26T02:19:43.377Z,7.20
2017-04-26T02:20:43.702Z,7.20
2017-04-26T02:21:43.399Z,7.30
2017-04-26T02:22:44.126Z,7.30
2017-04-26T02:23:44.073Z,7.30
2017-04-26T02:24:44.077Z,7.30
2017-04-26T02:25:45.245Z,7.20
2017-04-26T02:26:45.340Z,7.20
2017-04-26T02:27:45.403Z,7.20
2017-04-26T02:28:45.362Z,7.20
2017-04-26T02:29:45.326Z,7.20
2017-04-26T02:30:46.437Z,7.20
2017-04-26T02:31:46.416Z,7.20
2017-04-26T02:32:46.378Z,7.20
2017-04-26T02:33:46.363Z,7.20
2017-04-26T02:34:47.065Z,7.20
2017-04-26T02:35:47.364Z,7.20
2017-04-26T02:36:47.377Z,7.20
2017-04-26T02:37:47.338Z,7.20
2017-04-26T02:38:47.133Z,7.20
2017-04-26T02:39:47.105Z,7.20
2017-04-26T02:40:47.409Z,7.20
2017-04-26T02:41:47.344Z,7.20
2017-04-26T02:42:48.174Z,7.20
2017-04-26T02:43:48.903Z,7.20
2017-04-26T02:44:49.570Z,7.20
2017-04-26T02:45:49.905Z,7.20
2017-04-26T02:46:49.885Z,7.20
2017-04-26T02:47:49.851Z,7.20
2017-04-26T02:48:49.784Z,7.20
2017-04-26T02:49:50.176Z,7.20
2017-04-26T02:50:50.644Z,7.20
2017-04-26T02:51:50.622Z,7.20
2017-04-26T02:52:50.577Z,7.20
2017-04-26T02:53:51.272Z,7.20
2017-04-26T02:54:51.287Z,7.20
2017-04-26T02:55:51.710Z,7.20
2017-04-26T02:56:51.663Z,7.20
2017-04-26T02:57:51.715Z,7.20
2017-04-26T02:58:51.655Z,7.20
2017-04-26T02:59:51.619Z,7.20
2017-04-26T03:00:51.930Z,7.20
2017-04-26T03:01:51.942Z,7.20
2017-04-26T03:02:52.000Z,7.20
2017-04-26T03:03:52.013Z,7.20
2017-04-26T03:04:52.237Z,7.20
2017-04-26T03:05:52.579Z,7.20
2017-04-26T03:06:52.656Z,7.20
2017-04-26T03:07:52.596Z,7.10
2017-04-26T03:08:52.604Z,7.10
2017-04-26T03:09:52.599Z,7.10
2017-04-26T03:10:52.894Z,7.10
2017-04-26T03:11:52.855Z,7.10
2017-04-26T03:12:52.768Z,7.10
2017-04-26T03:13:52.713Z,7.10
2017-04-26T03:14:52.611Z,7.10
2017-04-26T03:15:53.657Z,7.10
2017-04-26T03:16:53.654Z,7.10
2017-04-26T03:17:53.612Z,7.10
2017-04-26T03:18:53.733Z,7.10
2017-04-26T03:19:53.783Z,7.10
2017-04-26T03:20:54.114Z,7.10
2017-04-26T03:21:54.071Z,7.10
2017-04-26T03:22:54.044Z,7.10
2017-04-26T03:23:54.106Z,7.10
2017-04-26T03:24:54.062Z,7.10
2017-04-26T03:25:55.078Z,7.10
2017-04-26T03:26:55.812Z,7.10
2017-04-26T03:27:56.468Z,7.10
2017-04-26T03:28:56.430Z,7.10
2017-04-26T03:29:57.120Z,7.10
2017-04-26T03:30:57.420Z,7.20
2017-04-26T03:31:57.377Z,7.10
2017-04-26T03:32:58.079Z,7.10
2017-04-26T03:33:58.022Z,7.10
2017-04-26T03:34:57.955Z,7.20
2017-04-26T03:35:58.203Z,7.10
2017-04-26T03:36:59.052Z,7.10
2017-04-26T03:37:59.716Z,7.10
2017-04-26T03:38:59.686Z,7.10
2017-04-26T03:39:59.645Z,7.10
2017-04-26T03:40:59.965Z,7.10
2017-04-26T03:41:59.917Z,7.10
2017-04-26T03:42:59.883Z,7.10
2017-04-26T03:43:59.855Z,7.10
2017-04-26T03:44:59.877Z,7.10
2017-04-26T03:46:00.184Z,7.10
2017-04-26T03:47:00.136Z,7.10
2017-04-26T03:48:00.847Z,7.10
2017-04-26T03:49:01.616Z,7.10
2017-04-26T03:50:01.639Z,7.10
2017-04-26T03:51:01.967Z,7.10
2017-04-26T03:52:01.979Z,7.00
2017-04-26T03:53:01.925Z,7.00
2017-04-26T03:54:04.949Z,7.00
2017-04-26T03:55:04.953Z,6.90
2017-04-26T03:56:04.981Z,6.90
2017-04-26T03:57:05.008Z,6.90
2017-04-26T03:58:05.743Z,6.90
2017-04-26T03:59:05.705Z,6.90
2017-04-26T04:00:05.637Z,6.80
2017-04-26T04:01:06.467Z,6.70
2017-04-26T04:02:07.156Z,6.70
2017-04-26T04:03:07.178Z,6.70
2017-04-26T04:04:07.170Z,6.60
2017-04-26T04:05:07.125Z,6.60
2017-04-26T04:06:07.605Z,6.60
2017-04-26T04:07:07.592Z,6.50
2017-04-26T04:08:07.586Z,6.50
2017-04-26T04:09:07.642Z,6.50
2017-04-26T04:10:20.928Z,6.40
2017-04-26T04:11:21.007Z,6.50
2017-04-26T04:12:21.026Z,6.40
2017-04-26T04:13:20.990Z,6.40
2017-04-26T04:14:21.002Z,6.40
2017-04-26T04:15:20.994Z,6.40
2017-04-26T04:16:21.988Z,6.30
2017-04-26T04:17:21.942Z,6.30
2017-04-26T04:18:21.893Z,6.30
2017-04-26T04:19:21.833Z,6.30
2017-04-26T04:20:21.841Z,6.30
2017-04-26T04:21:22.804Z,6.30
2017-04-26T04:22:22.768Z,6.30
2017-04-26T04:23:22.747Z,6.30
2017-04-26T04:24:22.727Z,6.30
2017-04-26T04:25:26.469Z,6.30
2017-04-26T04:26:26.726Z,6.20
2017-04-26T04:27:26.705Z,6.20
2017-04-26T04:28:26.683Z,6.20
2017-04-26T04:29:26.650Z,6.20
2017-04-26T04:30:26.589Z,6.20
2017-04-26T04:31:26.877Z,6.20
2017-04-26T04:32:26.874Z,6.20
2017-04-26T04:33:26.832Z,6.20
2017-04-26T04:34:27.522Z,6.10
2017-04-26T04:35:27.219Z,6.10
2017-04-26T04:36:28.274Z,6.10
2017-04-26T04:37:28.952Z,6.10
2017-04-26T04:38:28.916Z,6.10
2017-04-26T04:39:28.910Z,6.10
2017-04-26T04:40:28.872Z,6.20
2017-04-26T04:41:29.201Z,6.40
2017-04-26T04:42:29.174Z,6.50
2017-04-26T04:43:29.121Z,6.70
2017-04-26T04:44:29.193Z,6.70
2017-04-26T04:45:29.184Z,6.80
2017-04-26T04:46:29.413Z,6.90
2017-04-26T04:47:29.371Z,7.10
2017-04-26T04:48:30.049Z,7.10
2017-04-26T04:49:29.974Z,7.20
2017-04-26T04:50:29.901Z,7.20
2017-04-26T04:51:31.002Z,7.10
2017-04-26T04:52:30.743Z,7.10
2017-04-26T04:53:30.867Z,7.00
2017-04-26T04:54:30.858Z,6.90
2017-04-26T04:55:31.581Z,6.80
2017-04-26T04:56:31.967Z,6.80
2017-04-26T04:57:32.092Z,6.70
2017-04-26T04:58:32.164Z,6.70
2017-04-26T04:59:32.115Z,6.60
2017-04-26T05:00:32.130Z,6.60
2017-04-26T05:01:32.404Z,6.60
2017-04-26T05:02:32.346Z,6.60
2017-04-26T05:03:32.300Z,6.80
2017-04-26T05:04:32.294Z,6.80
2017-04-26T05:05:32.263Z,6.90
2017-04-26T05:06:32.497Z,7.00
2017-04-26T05:07:32.461Z,7.10
2017-04-26T05:08:33.177Z,7.10
2017-04-26T05:09:33.895Z,7.30
2017-04-26T05:10:33.947Z,7.40
2017-04-26T05:11:34.335Z,7.50
2017-04-26T05:12:34.281Z,7.40
2017-04-26T05:13:34.260Z,7.40
2017-04-26T05:14:34.252Z,7.50
2017-04-26T05:15:34.216Z,7.50
2017-04-26T05:16:34.189Z,7.50
2017-04-26T05:17:34.178Z,7.50
2017-04-26T05:18:34.127Z,7.60
2017-04-26T05:19:34.069Z,7.60
2017-04-26T05:20:34.758Z,7.60
2017-04-26T05:21:34.684Z,7.80
2017-04-26T05:22:34.981Z,7.90
2017-04-26T05:23:34.875Z,8.00
2017-04-26T05:24:34.811Z,8.10
2017-04-26T05:25:35.518Z,8.20
2017-04-26T05:26:35.510Z,8.20
2017-04-26T05:27:35.759Z,8.20
2017-04-26T05:28:36.498Z,8.20
2017-04-26T05:29:39.454Z,8.10
2017-04-26T05:30:40.148Z,8.10
2017-04-26T05:31:40.186Z,8.00
2017-04-26T05:32:40.561Z,8.00
2017-04-26T05:33:40.483Z,7.90
2017-04-26T05:34:40.458Z,7.80
2017-04-26T05:35:40.502Z,7.80
2017-04-26T05:36:40.817Z,7.80
2017-04-26T05:37:41.120Z,7.80
2017-04-26T05:38:40.885Z,7.80
2017-04-26T05:39:40.611Z,7.90
2017-04-26T05:40:41.094Z,7.90
2017-04-26T05:41:41.084Z,8.00
2017-04-26T05:42:41.439Z,8.00
2017-04-26T05:43:41.401Z,8.00
2017-04-26T05:44:41.330Z,8.00
2017-04-26T05:45:41.282Z,7.90
2017-04-26T05:46:42.051Z,7.90
2017-04-26T05:47:42.308Z,7.90
2017-04-26T05:48:42.302Z,7.90
2017-04-26T05:49:42.234Z,7.80
2017-04-26T05:50:42.254Z,7.80
2017-04-26T05:51:42.213Z,7.70
2017-04-26T05:52:42.185Z,7.70
2017-04-26T05:53:42.168Z,7.60
2017-04-26T05:54:42.853Z,7.60
2017-04-26T05:55:42.786Z,7.50
2017-04-26T05:56:43.526Z,7.40
2017-04-26T05:57:43.460Z,7.30
2017-04-26T05:58:43.417Z,7.20
2017-04-26T05:59:44.080Z,7.20
2017-04-26T06:00:44.064Z,7.20
2017-04-26T06:01:44.162Z,7.30
2017-04-26T06:02:44.850Z,7.30
2017-04-26T06:03:45.161Z,7.30
2017-04-26T06:04:45.129Z,7.30
2017-04-26T06:05:45.093Z,7.20
2017-04-26T06:06:45.084Z,7.20
2017-04-26T06:07:45.067Z,7.20
2017-04-26T06:08:45.295Z,7.20
2017-04-26T06:09:45.321Z,7.30
2017-04-26T06:10:45.355Z,7.30
2017-04-26T06:11:45.319Z,7.30
2017-04-26T06:12:45.317Z,7.30
2017-04-26T06:13:45.650Z,7.40
2017-04-26T06:14:45.617Z,7.30
2017-04-26T06:15:45.590Z,7.30
2017-04-26T06:16:45.618Z,7.20
2017-04-26T06:17:45.590Z,7.20
2017-04-26T06:18:46.616Z,7.10
2017-04-26T06:19:47.487Z,7.10
2017-04-26T06:20:47.857Z,7.10
2017-04-26T06:21:48.254Z,7.00
2017-04-26T06:22:48.213Z,7.10
2017-04-26T06:23:48.662Z,7.10
2017-04-26T06:24:48.605Z,7.00
2017-04-26T06:25:49.362Z,7.10
2017-04-26T06:26:49.423Z,7.10
2017-04-26T06:27:50.168Z,7.00
2017-04-26T06:28:50.466Z,7.00
2017-04-26T06:29:51.130Z,6.90
2017-04-26T06:30:51.087Z,6.90
2017-04-26T06:31:51.822Z,6.90
2017-04-26T06:32:51.853Z,6.90
2017-04-26T06:33:52.925Z,6.90
2017-04-26T06:34:52.841Z,6.90
2017-04-26T06:35:53.539Z,6.90
2017-04-26T06:36:53.498Z,6.90
2017-04-26T06:37:53.493Z,6.90
2017-04-26T06:38:55.814Z,6.90
2017-04-26T06:39:55.818Z,6.90
2017-04-26T06:40:55.779Z,6.80
2017-04-26T06:41:55.750Z,6.80
2017-04-26T06:42:55.714Z,6.70
2017-04-26T06:43:56.053Z,6.70
2017-04-26T06:44:56.057Z,6.60
2017-04-26T06:45:56.049Z,6.60
2017-04-26T06:46:56.019Z,6.50
2017-04-26T06:47:55.955Z,6.50
2017-04-26T06:48:56.289Z,6.50
2017-04-26T06:49:56.278Z,6.50
2017-04-26T06:50:56.214Z,6.40
2017-04-26T06:51:56.254Z,6.40
2017-04-26T06:52:56.262Z,6.40
2017-04-26T06:53:56.803Z,6.40
2017-04-26T06:54:56.805Z,6.40
2017-04-26T06:55:56.778Z,6.40
2017-04-26T06:56:57.501Z,6.30
2017-04-26T06:57:57.913Z,6.30
2017-04-26T06:58:58.196Z,6.30
2017-04-26T06:59:58.156Z,6.30
2017-04-26T07:00:58.094Z,6.30
2017-04-26T07:01:58.045Z,6.30
2017-04-26T07:03:07.022Z,6.30
2017-04-26T07:04:08.271Z,6.30
2017-04-26T07:05:08.282Z,6.30
2017-04-26T07:06:08.275Z,6.30
2017-04-26T07:07:08.239Z,6.30
2017-04-26T07:08:08.674Z,6.30
2017-04-26T07:09:08.951Z,6.30
2017-04-26T07:10:08.918Z,6.30
2017-04-26T07:11:08.874Z,6.40
2017-04-26T07:12:08.900Z,6.40
2017-04-26T07:13:08.852Z,6.40
2017-04-26T07:14:09.994Z,6.40
2017-04-26T07:15:10.677Z,6.40
2017-04-26T07:16:10.636Z,6.50
2017-04-26T07:17:10.579Z,6.40
2017-04-26T07:18:10.565Z,6.50
2017-04-26T07:19:10.904Z,6.50
2017-04-26T07:20:10.918Z,6.50
2017-04-26T07:21:10.978Z,6.50
2017-04-26T07:22:10.954Z,6.50
2017-04-26T07:23:11.707Z,6.50
2017-04-26T07:24:12.088Z,6.50
2017-04-26T07:25:12.886Z,6.50
2017-04-26T07:26:12.815Z,6.50
2017-04-26T07:27:13.478Z,6.50
2017-04-26T07:28:14.184Z,6.50
2017-04-26T07:29:14.400Z,6.50
2017-04-26T07:30:14.343Z,6.50
2017-04-26T07:31:14.293Z,6.50
2017-04-26T07:32:14.999Z,6.50
2017-04-26T07:33:14.956Z,6.50
2017-04-26T07:34:15.301Z,6.50
2017-04-26T07:35:15.290Z,6.50
2017-04-26T07:36:15.239Z,6.60
2017-04-26T07:37:15.921Z,6.60
2017-04-26T07:38:15.948Z,6.60
2017-04-26T07:39:16.928Z,6.60
2017-04-26T07:40:17.654Z,6.70
2017-04-26T07:41:17.571Z,6.90
2017-04-26T07:42:17.521Z,7.10
2017-04-26T07:43:17.483Z,7.30
2017-04-26T07:44:17.548Z,7.50
2017-04-26T07:45:17.745Z,7.50
2017-04-26T07:46:18.456Z,7.60
2017-04-26T07:47:18.476Z,7.60
2017-04-26T07:48:19.171Z,7.50
2017-04-26T07:49:19.160Z,7.50
2017-04-26T07:50:19.177Z,7.40
2017-04-26T07:51:19.129Z,7.40
2017-04-26T07:52:19.067Z,7.30
2017-04-26T07:53:18.984Z,7.50
2017-04-26T07:54:19.026Z,7.60
2017-04-26T07:55:19.724Z,7.70
2017-04-26T07:56:19.724Z,7.80
2017-04-26T07:57:19.686Z,7.80
2017-04-26T07:58:19.642Z,7.80
2017-04-26T07:59:19.623Z,7.80
2017-04-26T08:00:19.971Z,7.80
2017-04-26T08:01:19.988Z,7.80
2017-04-26T08:02:19.909Z,7.80
2017-04-26T08:03:19.917Z,7.80
2017-04-26T08:04:20.703Z,7.80
2017-04-26T08:05:21.032Z,7.80
2017-04-26T08:06:20.963Z,7.80
2017-04-26T08:07:20.908Z,7.90
2017-04-26T08:08:20.898Z,7.90
2017-04-26T08:09:20.873Z,7.90
2017-04-26T08:10:21.863Z,7.90
2017-04-26T08:11:21.834Z,8.00
2017-04-26T08:12:21.788Z,8.10
2017-04-26T08:13:21.760Z,8.10
2017-04-26T08:14:21.679Z,8.20
2017-04-26T08:15:21.888Z,8.20
2017-04-26T08:16:21.947Z,8.20
2017-04-26T08:17:21.997Z,8.30
2017-04-26T08:18:21.931Z,8.30
2017-04-26T08:19:21.949Z,8.30
2017-04-26T08:20:22.349Z,8.20
2017-04-26T08:21:22.275Z,8.20
2017-04-26T08:22:22.382Z,8.10
2017-04-26T08:23:23.031Z,8.00
2017-04-26T08:24:23.051Z,8.00
2017-04-26T08:25:23.277Z,7.90
2017-04-26T08:26:23.297Z,7.80
2017-04-26T08:27:23.260Z,7.80
2017-04-26T08:28:23.277Z,7.70
2017-04-26T08:29:23.303Z,7.70
2017-04-26T08:30:23.572Z,7.60
2017-04-26T08:31:23.538Z,7.60
2017-04-26T08:32:23.517Z,7.60
2017-04-26T08:33:23.499Z,7.60
2017-04-26T08:34:23.511Z,7.60
2017-04-26T08:35:23.791Z,7.60
2017-04-26T08:36:24.543Z,7.50
2017-04-26T08:37:24.583Z,7.60
2017-04-26T08:38:25.345Z,7.50
2017-04-26T08:39:25.457Z,7.50
2017-04-26T08:40:26.691Z,7.50
2017-04-26T08:41:26.719Z,7.50
2017-04-26T08:42:26.719Z,7.40
2017-04-26T08:43:26.666Z,7.50
2017-04-26T08:44:26.677Z,7.50
2017-04-26T08:45:26.917Z,7.50
2017-04-26T08:46:27.753Z,7.50
2017-04-26T08:47:27.708Z,7.50
2017-04-26T08:48:27.706Z,7.50
2017-04-26T08:49:27.661Z,7.60
2017-04-26T08:50:28.774Z,7.60
2017-04-26T08:51:28.815Z,7.60
2017-04-26T08:52:28.908Z,7.70
2017-04-26T08:53:29.219Z,7.70
2017-04-26T08:54:29.916Z,7.70
2017-04-26T08:55:30.233Z,7.80
2017-04-26T08:56:30.235Z,7.80
2017-04-26T08:57:30.218Z,7.80
2017-04-26T08:58:30.166Z,7.80
2017-04-26T08:59:30.944Z,7.90
2017-04-26T09:00:31.281Z,7.90
2017-04-26T09:01:31.325Z,7.90
2017-04-26T09:02:31.801Z,7.90
2017-04-26T09:03:32.604Z,7.90
2017-04-26T09:04:33.508Z,7.90
2017-04-26T09:05:33.891Z,7.90
2017-04-26T09:06:33.866Z,7.90
2017-04-26T09:07:33.805Z,7.90
2017-04-26T09:08:33.757Z,7.90
2017-04-26T09:09:33.743Z,7.90
2017-04-26T09:10:34.178Z,8.00
2017-04-26T09:11:34.169Z,8.10
2017-04-26T09:12:34.194Z,8.10
2017-04-26T09:13:34.165Z,8.20
2017-04-26T09:14:34.861Z,8.20
2017-04-26T09:15:35.161Z,8.30
2017-04-26T09:16:34.848Z,8.30
2017-04-26T09:17:35.563Z,8.40
2017-04-26T09:18:36.256Z,8.40
2017-04-26T09:19:36.185Z,8.40
2017-04-26T09:20:36.626Z,8.40
2017-04-26T09:21:36.660Z,8.40
2017-04-26T09:22:37.470Z,8.30
2017-04-26T09:23:37.416Z,8.30
2017-04-26T09:24:37.449Z,8.30
2017-04-26T09:25:37.698Z,8.30
2017-04-26T09:26:37.690Z,8.20
2017-04-26T09:27:37.671Z,8.20
2017-04-26T09:28:37.765Z,8.10
2017-04-26T09:29:37.779Z,8.10
2017-04-26T09:30:38.056Z,8.00
2017-04-26T09:31:38.758Z,8.00
2017-04-26T09:32:38.717Z,8.00
2017-04-26T09:33:38.729Z,8.00
2017-04-26T09:34:38.715Z,8.00
2017-04-26T09:35:38.999Z,8.00
2017-04-26T09:36:39.688Z,8.00
2017-04-26T09:37:39.713Z,8.00
2017-04-26T09:38:39.666Z,8.00
2017-04-26T09:39:39.633Z,8.10
2017-04-26T09:40:39.929Z,8.20
2017-04-26T09:41:39.887Z,8.20
2017-04-26T09:42:39.815Z,8.20
2017-04-26T09:43:39.790Z,8.30
2017-04-26T09:44:39.768Z,8.40
2017-04-26T09:45:40.760Z,8.40
2017-04-26T09:46:40.697Z,8.50
2017-04-26T09:47:40.627Z,8.50
2017-04-26T09:48:40.558Z,8.40
2017-04-26T09:49:40.640Z,8.40
2017-04-26T09:50:41.010Z,8.40
2017-04-26T09:51:41.007Z,8.30
2017-04-26T09:52:40.972Z,8.30
2017-04-26T09:53:40.911Z,8.20
2017-04-26T09:54:40.927Z,8.20
2017-04-26T09:55:41.280Z,8.10
2017-04-26T09:56:41.950Z,8.10
2017-04-26T09:57:41.884Z,8.00
2017-04-26T09:58:41.803Z,8.00
2017-04-26T09:59:42.497Z,8.00
2017-04-26T10:00:42.767Z,8.00
2017-04-26T10:01:42.781Z,8.10
2017-04-26T10:02:43.519Z,8.00
2017-04-26T10:03:43.478Z,8.00
2017-04-26T10:04:44.377Z,8.00
2017-04-26T10:05:44.647Z,8.00
2017-04-26T10:06:44.621Z,8.00
2017-04-26T10:07:44.551Z,8.00
2017-04-26T10:08:44.476Z,8.00
2017-04-26T10:09:44.641Z,8.00
2017-04-26T10:10:45.733Z,7.90
2017-04-26T10:11:45.690Z,7.90
2017-04-26T10:12:45.646Z,8.00
2017-04-26T10:13:45.613Z,7.90
2017-04-26T10:14:45.585Z,8.00
2017-04-26T10:15:46.691Z,8.00
2017-04-26T10:16:46.670Z,8.00
2017-04-26T10:17:47.353Z,8.00
2017-04-26T10:18:48.061Z,8.00
2017-04-26T10:19:48.774Z,8.00
2017-04-26T10:20:49.074Z,8.10
2017-04-26T10:21:48.783Z,8.00
2017-04-26T10:22:49.004Z,8.00
2017-04-26T10:23:48.986Z,8.10
2017-04-26T10:24:48.922Z,8.10
2017-04-26T10:25:50.234Z,8.20
2017-04-26T10:26:50.251Z,8.30
2017-04-26T10:27:50.157Z,8.40
2017-04-26T10:28:50.109Z,8.40
2017-04-26T10:29:49.997Z,8.50
2017-04-26T10:30:49.932Z,8.50
2017-04-26T10:31:49.874Z,8.60
2017-04-26T10:32:49.818Z,8.60
2017-04-26T10:33:49.789Z,8.70
2017-04-26T10:34:50.501Z,8.70
2017-04-26T10:35:50.414Z,8.70
2017-04-26T10:36:50.702Z,8.80
2017-04-26T10:37:50.660Z,8.80
2017-04-26T10:38:50.581Z,8.80
2017-04-26T10:39:50.504Z,8.80
2017-04-26T10:40:50.524Z,8.80
2017-04-26T10:41:50.847Z,8.80
2017-04-26T10:42:50.881Z,8.80
2017-04-26T10:43:50.877Z,8.80
2017-04-26T10:44:50.802Z,8.80
2017-04-26T10:45:50.787Z,8.70
2017-04-26T10:46:51.794Z,8.70
2017-04-26T10:47:51.757Z,8.70
2017-04-26T10:48:51.715Z,8.70
2017-04-26T10:49:51.669Z,8.60
2017-04-26T10:50:51.682Z,8.60
2017-04-26T10:51:52.742Z,8.50
2017-04-26T10:52:52.785Z,8.50
2017-04-26T10:53:53.477Z,8.50
2017-04-26T10:54:53.400Z,8.50
2017-04-26T10:55:53.376Z,8.50
2017-04-26T10:56:53.684Z,8.50
2017-04-26T10:57:53.642Z,8.50
2017-04-26T10:58:55.496Z,8.60
2017-04-26T10:59:55.471Z,8.60
2017-04-26T11:00:55.470Z,8.60
2017-04-26T11:01:55.787Z,8.60
2017-04-26T11:02:55.740Z,8.60
2017-04-26T11:03:55.649Z,8.60
2017-04-26T11:04:55.621Z,8.50
2017-04-26T11:05:56.279Z,8.50
2017-04-26T11:06:56.531Z,8.40
2017-04-26T11:07:56.465Z,8.40
2017-04-26T11:08:56.661Z,8.40
2017-04-26T11:09:57.324Z,8.30
2017-04-26T11:10:57.328Z,8.30
2017-04-26T11:11:57.595Z,8.30
2017-04-26T11:12:57.519Z,8.30
2017-04-26T11:13:58.148Z,8.30
2017-04-26T11:14:58.078Z,8.30
2017-04-26T11:15:58.049Z,8.30
2017-04-26T11:16:58.315Z,8.30
2017-04-26T11:17:58.253Z,8.30
2017-04-26T11:18:58.223Z,8.20
2017-04-26T11:19:58.157Z,8.20
2017-04-26T11:20:58.890Z,8.20
2017-04-26T11:21:59.982Z,8.20
2017-04-26T11:22:59.729Z,8.20
2017-04-26T11:23:59.527Z,8.10
2017-04-26T11:25:00.246Z,8.10
2017-04-26T11:26:00.945Z,8.10
2017-04-26T11:27:01.303Z,8.10
2017-04-26T11:28:01.236Z,8.10
2017-04-26T11:29:01.191Z,8.10
2017-04-26T11:30:01.869Z,8.10
2017-04-26T11:31:01.790Z,8.20
2017-04-26T11:32:02.082Z,8.30
2017-04-26T11:33:02.038Z,8.50
2017-04-26T11:34:02.808Z,8.70
2017-04-26T11:35:02.797Z,8.90
2017-04-26T11:36:02.800Z,9.10
2017-04-26T11:37:03.053Z,9.30
2017-04-26T11:38:03.070Z,9.40
2017-04-26T11:39:03.091Z,9.40
2017-04-26T11:40:03.901Z,9.40
2017-04-26T11:41:03.913Z,9.40
2017-04-26T11:42:04.925Z,9.30
2017-04-26T11:43:04.946Z,9.20
2017-04-26T11:44:04.902Z,9.10
2017-04-26T11:45:04.862Z,9.00
2017-04-26T11:46:05.574Z,8.90
2017-04-26T11:47:05.796Z,8.80
2017-04-26T11:48:06.524Z,8.70
2017-04-26T11:49:07.251Z,8.60
2017-04-26T11:50:07.954Z,8.60
2017-04-26T11:51:07.942Z,8.50
2017-04-26T11:52:07.907Z,8.50
2017-04-26T11:53:07.872Z,8.50
2017-04-26T11:54:07.893Z,8.50
2017-04-26T11:55:08.600Z,8.50
2017-04-26T11:56:08.521Z,8.50
2017-04-26T11:57:09.618Z,8.50
2017-04-26T11:58:09.564Z,8.50
2017-04-26T11:59:09.556Z,8.50
2017-04-26T12:00:09.536Z,8.50
2017-04-26T12:01:09.497Z,8.60
2017-04-26T12:02:09.771Z,8.60
2017-04-26T12:03:09.775Z,8.60
2017-04-26T12:04:09.743Z,8.70
2017-04-26T12:05:09.760Z,8.70
2017-04-26T12:06:09.838Z,8.80
2017-04-26T12:07:10.201Z,8.70
2017-04-26T12:08:10.190Z,8.80
2017-04-26T12:09:10.214Z,8.70
2017-04-26T12:10:10.203Z,8.70
2017-04-26T12:11:10.166Z,8.70
2017-04-26T12:12:10.430Z,8.70
2017-04-26T12:13:10.396Z,8.70
2017-04-26T12:14:10.366Z,8.70
2017-04-26T12:15:11.108Z,8.80
2017-04-26T12:16:11.004Z,8.90
2017-04-26T12:17:11.378Z,8.90
2017-04-26T12:18:11.069Z,9.00
2017-04-26T12:19:11.037Z,9.00
2017-04-26T12:20:11.035Z,9.10
2017-04-26T12:21:10.986Z,9.10
2017-04-26T12:22:10.947Z,9.10
2017-04-26T12:23:10.973Z,9.10
2017-04-26T12:24:10.941Z,9.10
2017-04-26T12:25:10.916Z,9.20
2017-04-26T12:26:10.875Z,9.30
2017-04-26T12:27:10.781Z,9.30
2017-04-26T12:28:11.068Z,9.50
2017-04-26T12:29:11.745Z,9.50
2017-04-26T12:30:11.741Z,9.60
2017-04-26T12:31:11.663Z,9.60
2017-04-26T12:32:11.632Z,9.60
2017-04-26T12:33:11.878Z,9.50
2017-04-26T12:34:11.815Z,9.40
2017-04-26T12:35:11.535Z,9.30
2017-04-26T12:36:11.289Z,9.20
2017-04-26T12:37:12.040Z,9.10
2017-04-26T12:38:13.119Z,9.10
2017-04-26T12:39:13.037Z,9.00
2017-04-26T12:40:12.968Z,9.00
2017-04-26T12:41:12.778Z,8.90
2017-04-26T12:42:13.459Z,8.90
2017-04-26T12:43:13.787Z,8.90
2017-04-26T12:44:13.799Z,8.80
2017-04-26T12:45:13.805Z,8.80
2017-04-26T12:46:14.535Z,8.80
2017-04-26T12:47:14.469Z,8.80
2017-04-26T12:48:15.219Z,8.80
2017-04-26T12:49:14.976Z,8.80
2017-04-26T12:50:14.791Z,8.80
2017-04-26T12:51:15.560Z,8.80
2017-04-26T12:52:15.568Z,8.80
2017-04-26T12:53:15.849Z,8.70
2017-04-26T12:54:15.819Z,8.70
2017-04-26T12:55:15.790Z,8.70
2017-04-26T12:56:15.773Z,8.60
2017-04-26T12:57:16.145Z,8.60
2017-04-26T12:58:16.460Z,8.60
2017-04-26T12:59:16.420Z,8.50
2017-04-26T13:00:16.938Z,8.50
2017-04-26T13:01:16.877Z,8.50
2017-04-26T13:02:16.606Z,8.40
2017-04-26T13:03:16.878Z,8.50
2017-04-26T13:04:16.833Z,8.40
2017-04-26T13:05:16.513Z,8.40
2017-04-26T13:06:16.510Z,8.40
2017-04-26T13:07:16.756Z,8.30
2017-04-26T13:08:17.023Z,8.30
2017-04-26T13:09:16.927Z,8.30
2017-04-26T13:10:16.891Z,8.30
2017-04-26T13:11:16.834Z,8.30
2017-04-26T13:12:16.817Z,8.30
2017-04-26T13:13:17.093Z,8.30
2017-04-26T13:14:17.118Z,8.30
2017-04-26T13:15:17.761Z,8.30
2017-04-26T13:16:17.706Z,8.30
2017-04-26T13:17:18.126Z,8.30
2017-04-26T13:18:18.341Z,8.20
2017-04-26T13:19:19.124Z,8.20
2017-04-26T13:20:19.115Z,8.20
2017-04-26T13:21:19.092Z,8.20